createdAt,value
2018-12-07T00:00:53.050Z,95.90
2018-12-07T00:05:01.194Z,96.20
2018-12-07T00:09:09.318Z,96.30
2018-12-07T00:13:17.447Z,96.40
2018-12-07T00:17:25.561Z,96.60
2018-12-07T00:21:33.690Z,96.90
2018-12-07T00:25:41.885Z,97.10
2018-12-07T00:29:50.026Z,97.20
2018-12-07T00:33:58.181Z,97.20
2018-12-07T00:38:06.294Z,97.10
2018-12-07T00:42:14.433Z,97.10
2018-12-07T00:46:22.610Z,97.00
2018-12-07T00:50:30.767Z,96.70
2018-12-07T00:54:38.909Z,96.10
2018-12-07T00:58:47.037Z,95.40
2018-12-07T01:02:55.195Z,94.60
2018-12-07T01:07:03.354Z,94.50
2018-12-07T01:11:11.545Z,94.20
2018-12-07T01:15:19.713Z,93.50
2018-12-07T01:19:27.873Z,93.20
2018-12-07T01:23:36.049Z,92.40
2018-12-07T01:27:44.214Z,92.20
2018-12-07T01:31:52.378Z,92.10
2018-12-07T01:36:00.552Z,92.20
2018-12-07T01:40:08.720Z,92.00
2018-12-07T01:44:16.878Z,91.90
2018-12-07T01:48:25.105Z,91.70
2018-12-07T01:52:33.269Z,91.60
2018-12-07T01:56:41.430Z,91.50
2018-12-07T02:00:49.597Z,91.40
2018-12-07T02:04:57.755Z,91.60
2018-12-07T02:09:06.782Z,91.60
2018-12-07T02:13:14.938Z,91.70
2018-12-07T02:17:23.123Z,91.60
2018-12-07T02:21:31.273Z,91.60
2018-12-07T02:25:39.439Z,91.60
2018-12-07T02:29:47.602Z,91.50
2018-12-07T02:33:55.769Z,91.40
2018-12-07T02:38:04.008Z,91.30
2018-12-07T02:42:12.139Z,91.30
2018-12-07T02:46:20.272Z,91.00
2018-12-07T02:50:28.396Z,91.10
2018-12-07T02:54:36.515Z,91.00
2018-12-07T02:58:44.638Z,91.10
2018-12-07T03:02:52.761Z,91.20
2018-12-07T03:07:00.899Z,91.30
2018-12-07T03:11:09.046Z,91.30
2018-12-07T03:15:17.179Z,91.40
2018-12-07T03:19:25.306Z,91.40
2018-12-07T03:23:33.434Z,91.40
2018-12-07T03:27:41.575Z,91.70
2018-12-07T03:31:49.711Z,91.00
2018-12-07T03:35:57.840Z,90.90
2018-12-07T03:40:05.983Z,90.60
2018-12-07T03:44:14.111Z,90.70
2018-12-07T03:48:22.240Z,90.90
2018-12-07T03:52:30.375Z,91.10
2018-12-07T03:56:38.507Z,91.40
2018-12-07T04:00:46.634Z,91.60
2018-12-07T04:04:54.883Z,91.70
2018-12-07T04:09:03.162Z,91.70
2018-12-07T04:13:11.340Z,91.80
2018-12-07T04:17:19.475Z,91.80
2018-12-07T04:21:27.605Z,91.70
2018-12-07T04:25:35.754Z,91.70
2018-12-07T04:29:43.875Z,91.90
2018-12-07T04:33:52.050Z,92.20
2018-12-07T04:38:00.274Z,92.30
2018-12-07T04:42:08.430Z,92.50
2018-12-07T04:46:16.649Z,92.70
2018-12-07T04:50:24.719Z,92.90
2018-12-07T04:54:32.859Z,93.00
2018-12-07T04:58:41.037Z,93.10
2018-12-07T05:02:49.124Z,93.20
2018-12-07T05:06:57.275Z,93.20
2018-12-07T05:11:05.419Z,93.40
2018-12-07T05:15:13.602Z,93.50
2018-12-07T05:19:21.740Z,93.80
2018-12-07T05:23:29.870Z,93.30
2018-12-07T05:27:38.004Z,93.40
2018-12-07T05:31:46.142Z,93.60
2018-12-07T05:35:54.284Z,94.10
2018-12-07T05:40:02.432Z,93.90
2018-12-07T05:44:10.559Z,94.10
2018-12-07T05:48:23.572Z,94.30
2018-12-07T05:52:26.834Z,94.40
2018-12-07T05:56:34.978Z,94.60
2018-12-07T06:00:43.111Z,94.80
2018-12-07T06:04:51.238Z,94.90
2018-12-07T06:08:59.375Z,95.00
2018-12-07T06:13:07.544Z,95.20
2018-12-07T06:17:15.679Z,95.40
2018-12-07T06:21:23.821Z,95.70
2018-12-07T06:25:31.968Z,95.60
2018-12-07T06:29:40.119Z,95.70
2018-12-07T06:33:48.262Z,95.70
2018-12-07T06:37:56.399Z,95.80
2018-12-07T06:42:04.563Z,95.80
2018-12-07T06:46:12.698Z,95.80
2018-12-07T06:50:20.895Z,95.50
2018-12-07T06:54:29.041Z,95.10
2018-12-07T06:58:37.202Z,95.10
2018-12-07T07:02:45.323Z,95.20
2018-12-07T07:06:53.471Z,95.10
2018-12-07T07:11:01.601Z,95.00
2018-12-07T07:15:09.771Z,95.20
2018-12-07T07:19:17.919Z,95.40
2018-12-07T07:23:26.243Z,95.30
2018-12-07T07:27:34.395Z,95.10
2018-12-07T07:31:43.630Z,94.90
2018-12-07T07:35:51.006Z,94.80
2018-12-07T07:39:59.150Z,94.40
2018-12-07T07:44:07.298Z,94.50
2018-12-07T07:48:15.435Z,94.30
2018-12-07T07:52:23.578Z,94.20
2018-12-07T07:56:31.726Z,94.10
2018-12-07T08:00:39.870Z,94.20
2018-12-07T08:04:48.033Z,93.80
2018-12-07T08:08:56.227Z,93.90
2018-12-07T08:13:04.383Z,93.70
2018-12-07T08:17:12.527Z,93.70
2018-12-07T08:21:20.674Z,93.40
2018-12-07T08:25:28.827Z,93.40
2018-12-07T08:29:36.977Z,93.20
2018-12-07T08:33:45.144Z,93.40
2018-12-07T08:37:53.265Z,93.40
2018-12-07T08:42:06.709Z,93.40
2018-12-07T08:46:09.590Z,93.40
2018-12-07T08:50:17.761Z,93.30
2018-12-07T08:54:25.934Z,93.30
2018-12-07T08:58:34.046Z,93.20
2018-12-07T09:02:42.209Z,93.20
2018-12-07T09:06:50.356Z,93.00
2018-12-07T09:10:58.497Z,93.10
2018-12-07T09:15:06.654Z,93.00
2018-12-07T09:19:14.797Z,92.70
2018-12-07T09:23:22.933Z,92.60
2018-12-07T09:27:31.070Z,92.60
2018-12-07T09:31:39.221Z,92.60
2018-12-07T09:35:47.386Z,92.20
2018-12-07T09:39:55.514Z,92.10
2018-12-07T09:44:03.659Z,91.80
2018-12-07T09:48:11.798Z,91.50
2018-12-07T09:52:19.957Z,91.40
2018-12-07T09:56:28.125Z,91.20
2018-12-07T10:00:36.275Z,91.30
2018-12-07T10:04:44.399Z,91.40
2018-12-07T10:08:52.597Z,91.60
2018-12-07T10:13:07.757Z,91.30
2018-12-07T10:17:08.886Z,91.00
2018-12-07T10:21:17.046Z,90.90
2018-12-07T10:25:25.182Z,91.00
2018-12-07T10:29:33.298Z,90.60
2018-12-07T10:33:41.448Z,90.60
2018-12-07T10:37:49.619Z,90.50
2018-12-07T10:41:57.766Z,90.50
2018-12-07T10:46:05.911Z,90.60
2018-12-07T10:50:14.099Z,90.50
2018-12-07T10:54:22.226Z,90.70
2018-12-07T10:58:30.384Z,90.50
2018-12-07T11:02:43.761Z,90.70
2018-12-07T11:06:57.433Z,90.60
2018-12-07T11:11:11.015Z,90.70
2018-12-07T11:15:24.395Z,90.50
2018-12-07T11:19:38.064Z,90.70
2018-12-07T11:23:51.722Z,90.10
2018-12-07T11:29:05.679Z,89.60
2018-12-07T11:33:19.146Z,89.70
2018-12-07T11:37:27.290Z,90.10
2018-12-07T11:41:35.454Z,90.10
2018-12-07T11:45:43.592Z,90.10
2018-12-07T11:49:51.755Z,89.80
2018-12-07T11:53:59.903Z,90.00
2018-12-07T11:58:08.070Z,89.60
2018-12-07T12:02:16.289Z,89.20
2018-12-07T12:06:24.487Z,88.80
2018-12-07T12:10:32.680Z,88.70
2018-12-07T12:14:40.856Z,88.70
2018-12-07T12:18:49.039Z,87.70
2018-12-07T12:22:57.224Z,87.50
2018-12-07T12:27:05.440Z,86.50
2018-12-07T12:31:13.621Z,85.60
2018-12-07T12:35:21.803Z,84.80
2018-12-07T12:39:29.968Z,85.90
2018-12-07T12:43:38.164Z,85.30
2018-12-07T12:47:46.619Z,85.50
2018-12-07T12:51:54.953Z,85.90
2018-12-07T12:56:03.124Z,85.50
2018-12-07T13:00:11.304Z,84.60
2018-12-07T13:04:20.148Z,84.70
2018-12-07T13:08:28.331Z,84.30
2018-12-07T13:12:36.539Z,83.80
2018-12-07T13:16:44.708Z,84.20
2018-12-07T13:20:52.869Z,85.10
2018-12-07T13:25:01.046Z,85.60
2018-12-07T13:29:09.208Z,86.30
2018-12-07T13:33:17.398Z,86.90
2018-12-07T13:37:25.575Z,87.20
2018-12-07T13:41:33.967Z,88.00
2018-12-07T13:45:41.957Z,88.30
2018-12-07T13:49:50.873Z,87.70
2018-12-07T13:53:59.036Z,87.70
2018-12-07T13:58:07.389Z,87.60
2018-12-07T14:02:15.631Z,88.20
2018-12-07T14:06:24.119Z,87.60
2018-12-07T14:10:32.374Z,87.30
2018-12-07T14:14:40.373Z,87.30
2018-12-07T14:18:48.525Z,87.50
2018-12-07T14:22:56.741Z,86.60
2018-12-07T14:27:04.891Z,86.60
2018-12-07T14:31:13.074Z,86.60
2018-12-07T14:35:21.269Z,86.50
2018-12-07T14:39:29.437Z,87.40
2018-12-07T14:43:37.734Z,88.30
2018-12-07T14:47:45.847Z,89.40
2018-12-07T14:51:54.158Z,89.90
2018-12-07T14:56:02.261Z,90.10
2018-12-07T15:00:10.486Z,90.30
2018-12-07T15:04:18.647Z,90.60
2018-12-07T15:08:26.974Z,90.80
2018-12-07T15:12:35.034Z,90.60
2018-12-07T15:16:43.237Z,90.60
2018-12-07T15:20:51.401Z,91.00
2018-12-07T15:24:59.659Z,91.60
2018-12-07T15:29:07.835Z,91.80
2018-12-07T15:33:15.961Z,92.00
2018-12-07T15:37:24.158Z,92.20
2018-12-07T15:41:32.304Z,92.10
2018-12-07T15:45:40.605Z,92.10
2018-12-07T15:49:48.877Z,92.40
2018-12-07T15:53:56.900Z,92.70
2018-12-07T15:58:05.083Z,92.80
2018-12-07T16:02:13.238Z,93.10
2018-12-07T16:06:22.095Z,93.10
2018-12-07T16:10:30.256Z,93.10
2018-12-07T16:14:38.449Z,93.20
2018-12-07T16:18:46.825Z,93.10
2018-12-07T16:22:55.095Z,93.20
2018-12-07T16:27:03.468Z,93.30
2018-12-07T16:31:11.540Z,93.20
2018-12-07T16:35:20.435Z,93.40
2018-12-07T16:39:28.838Z,93.60
2018-12-07T16:43:36.922Z,93.70
2018-12-07T16:47:45.285Z,93.60
2018-12-07T16:51:53.920Z,93.60
2018-12-07T16:56:02.046Z,93.70
2018-12-07T17:00:10.458Z,93.70
2018-12-07T17:04:18.982Z,94.10
2018-12-07T17:08:27.420Z,94.20
2018-12-07T17:12:35.388Z,94.10
2018-12-07T17:16:43.815Z,94.00
2018-12-07T17:20:52.386Z,94.20
2018-12-07T17:25:00.635Z,94.50
2018-12-07T17:29:08.743Z,94.60
2018-12-07T17:33:17.984Z,91.30
2018-12-07T17:37:26.289Z,91.00
2018-12-07T17:41:34.810Z,90.40
2018-12-07T17:45:42.994Z,89.30
2018-12-07T17:49:51.485Z,89.80
2018-12-07T17:53:59.778Z,89.60
2018-12-07T17:58:08.031Z,90.40
2018-12-07T18:02:16.074Z,90.80
2018-12-07T18:06:24.365Z,90.60
2018-12-07T18:10:32.330Z,91.00
2018-12-07T18:14:40.507Z,91.30
2018-12-07T18:18:48.811Z,91.80
2018-12-07T18:22:56.740Z,91.70
2018-12-07T18:27:04.910Z,91.30
2018-12-07T18:31:13.007Z,91.50
2018-12-07T18:35:21.223Z,91.00
2018-12-07T18:39:29.375Z,90.90
2018-12-07T18:43:37.478Z,91.20
2018-12-07T18:47:45.665Z,91.40
2018-12-07T18:51:53.869Z,91.70
2018-12-07T18:56:01.940Z,86.40
2018-12-07T19:00:10.285Z,86.90
2018-12-07T19:04:18.604Z,86.50
2018-12-07T19:08:26.692Z,87.00
2018-12-07T19:12:34.644Z,87.40
2018-12-07T19:16:43.133Z,88.40
2018-12-07T19:20:51.590Z,88.80
2018-12-07T19:24:59.715Z,88.90
2018-12-07T19:29:07.735Z,88.90
2018-12-07T19:33:15.912Z,89.30
2018-12-07T19:37:24.128Z,89.60
2018-12-07T19:41:32.244Z,89.80
2018-12-07T19:45:40.826Z,90.00
2018-12-07T19:49:48.932Z,90.00
2018-12-07T19:53:57.200Z,90.00
2018-12-07T19:58:05.412Z,90.20
2018-12-07T20:02:13.486Z,90.30
2018-12-07T20:06:21.802Z,90.70
2018-12-07T20:10:29.926Z,90.90
2018-12-07T20:14:38.115Z,91.10
2018-12-07T20:18:46.283Z,91.30
2018-12-07T20:22:54.371Z,91.40
2018-12-07T20:27:02.404Z,91.50
2018-12-07T20:31:10.625Z,91.30
2018-12-07T20:35:19.007Z,91.30
2018-12-07T20:39:27.020Z,91.00
2018-12-07T20:43:35.351Z,91.00
2018-12-07T20:47:43.233Z,90.80
2018-12-07T20:51:51.477Z,90.80
2018-12-07T20:55:59.634Z,90.80
2018-12-07T21:00:08.978Z,90.70
2018-12-07T21:04:28.844Z,90.40
2018-12-07T21:09:23.831Z,89.70
2018-12-07T21:13:43.369Z,89.50
2018-12-07T21:17:51.682Z,89.80
2018-12-07T21:21:59.879Z,89.30
2018-12-07T21:26:07.788Z,87.70
2018-12-07T21:30:47.103Z,88.10
2018-12-07T21:34:59.424Z,87.60
2018-12-07T21:39:42.648Z,85.50
2018-12-07T21:43:50.891Z,85.40
2018-12-07T21:48:30.937Z,84.40
2018-12-07T21:52:39.258Z,84.80
2018-12-07T21:56:47.239Z,85.20
2018-12-07T22:00:55.657Z,84.90
2018-12-07T22:05:03.725Z,84.30
2018-12-07T22:09:11.758Z,84.70
2018-12-07T22:13:20.209Z,83.80
2018-12-07T22:17:28.295Z,84.10
2018-12-07T22:21:36.106Z,84.40
2018-12-07T22:25:44.238Z,85.00
2018-12-07T22:29:52.616Z,85.40
2018-12-07T22:34:00.509Z,86.10
2018-12-07T22:38:08.854Z,86.80
2018-12-07T22:42:16.836Z,87.00
2018-12-07T22:46:25.116Z,87.30
2018-12-07T22:50:32.986Z,87.10
2018-12-07T22:54:41.111Z,86.10
2018-12-07T22:58:49.238Z,86.00
2018-12-07T23:02:57.367Z,85.10
2018-12-07T23:07:05.499Z,85.30
2018-12-07T23:11:13.622Z,84.70
2018-12-07T23:15:21.759Z,84.30
2018-12-07T23:19:29.882Z,83.60
2018-12-07T23:23:38.040Z,83.60
2018-12-07T23:27:46.164Z,83.50
2018-12-07T23:31:54.306Z,83.50
2018-12-07T23:36:02.433Z,83.30
2018-12-07T23:40:10.552Z,83.20
2018-12-07T23:44:18.665Z,83.90
2018-12-07T23:48:26.794Z,83.50
2018-12-07T23:52:34.935Z,83.10
2018-12-07T23:56:43.054Z,83.90
